sensor_id;sensor_type;location;lat;lon;timestamp;temperature;humidity
52867;DHT22;38739;53.324;6.862;2022-10-04T00:01:53;12.30;99.90
52867;DHT22;38739;53.324;6.862;2022-10-04T00:07:17;12.30;99.90
52867;DHT22;38739;53.324;6.862;2022-10-04T00:09:54;12.30;99.90
52867;DHT22;38739;53.324;6.862;2022-10-04T00:12:33;12.30;99.90
52867;DHT22;38739;53.324;6.862;2022-10-04T00:15:05;12.30;99.90
52867;DHT22;38739;53.324;6.862;2022-10-04T00:17:38;12.30;99.90
52867;DHT22;38739;53.324;6.862;2022-10-04T00:25:51;12.30;99.90
52867;DHT22;38739;53.324;6.862;2022-10-04T00:33:35;12.30;99.90
52867;DHT22;38739;53.324;6.862;2022-10-04T00:46:43;12.20;99.90
52867;DHT22;38739;53.324;6.862;2022-10-04T00:49:11;12.20;99.90
52867;DHT22;38739;53.324;6.862;2022-10-04T00:52:00;12.20;99.90
52867;DHT22;38739;53.324;6.862;2022-10-04T00:54:52;12.20;99.90
52867;DHT22;38739;53.324;6.862;2022-10-04T00:57:27;12.20;99.90
52867;DHT22;38739;53.324;6.862;2022-10-04T01:00:13;12.20;99.90
52867;DHT22;38739;53.324;6.862;2022-10-04T01:05:19;12.20;99.90
52867;DHT22;38739;53.324;6.862;2022-10-04T01:07:51;12.20;99.90
52867;DHT22;38739;53.324;6.862;2022-10-04T01:10:26;12.20;99.90
52867;DHT22;38739;53.324;6.862;2022-10-04T01:13:10;12.20;99.90
52867;DHT22;38739;53.324;6.862;2022-10-04T01:15:52;12.20;99.90
52867;DHT22;38739;53.324;6.862;2022-10-04T01:29:06;12.20;99.90
52867;DHT22;38739;53.324;6.862;2022-10-04T01:31:35;12.20;99.90
52867;DHT22;38739;53.324;6.862;2022-10-04T01:34:02;12.20;99.90
52867;DHT22;38739;53.324;6.862;2022-10-04T01:36:30;12.20;99.90
52867;DHT22;38739;53.324;6.862;2022-10-04T01:38:56;12.20;99.90
52867;DHT22;38739;53.324;6.862;2022-10-04T01:41:36;12.20;99.90
52867;DHT22;38739;53.324;6.862;2022-10-04T01:44:05;12.20;99.90
52867;DHT22;38739;53.324;6.862;2022-10-04T01:46:35;12.20;99.90
52867;DHT22;38739;53.324;6.862;2022-10-04T01:49:06;12.20;99.90
52867;DHT22;38739;53.324;6.862;2022-10-04T01:51:41;12.20;99.90
52867;DHT22;38739;53.324;6.862;2022-10-04T01:54:15;12.20;99.90
52867;DHT22;38739;53.324;6.862;2022-10-04T01:57:05;12.20;99.90
52867;DHT22;38739;53.324;6.862;2022-10-04T01:59:40;12.20;99.90
52867;DHT22;38739;53.324;6.862;2022-10-04T02:04:54;12.20;99.90
52867;DHT22;38739;53.324;6.862;2022-10-04T02:07:21;12.20;99.90
52867;DHT22;38739;53.324;6.862;2022-10-04T02:09:52;12.20;99.90
52867;DHT22;38739;53.324;6.862;2022-10-04T02:12:19;12.20;99.90
52867;DHT22;38739;53.324;6.862;2022-10-04T02:14:50;12.20;99.90
52867;DHT22;38739;53.324;6.862;2022-10-04T02:17:23;12.20;99.90
52867;DHT22;38739;53.324;6.862;2022-10-04T02:19:53;12.20;99.90
52867;DHT22;38739;53.324;6.862;2022-10-04T02:22:19;12.20;99.90
52867;DHT22;38739;53.324;6.862;2022-10-04T02:24:48;12.20;99.90
52867;DHT22;38739;53.324;6.862;2022-10-04T02:27:15;12.20;99.90
52867;DHT22;38739;53.324;6.862;2022-10-04T02:29:41;12.20;99.90
52867;DHT22;38739;53.324;6.862;2022-10-04T02:32:07;12.20;99.90
52867;DHT22;38739;53.324;6.862;2022-10-04T02:34:52;12.30;99.90
52867;DHT22;38739;53.324;6.862;2022-10-04T02:37:24;12.20;99.90
52867;DHT22;38739;53.324;6.862;2022-10-04T02:40:12;12.20;99.90
52867;DHT22;38739;53.324;6.862;2022-10-04T02:42:50;12.20;99.90
52867;DHT22;38739;53.324;6.862;2022-10-04T02:45:34;12.20;99.90
52867;DHT22;38739;53.324;6.862;2022-10-04T02:48:10;12.20;99.90
52867;DHT22;38739;53.324;6.862;2022-10-04T02:50:46;12.20;99.90
52867;DHT22;38739;53.324;6.862;2022-10-04T02:56:27;12.10;99.90
52867;DHT22;38739;53.324;6.862;2022-10-04T02:58:59;12.10;99.90
52867;DHT22;38739;53.324;6.862;2022-10-04T03:01:26;12.10;99.90
52867;DHT22;38739;53.324;6.862;2022-10-04T03:04:00;12.00;99.90
52867;DHT22;38739;53.324;6.862;2022-10-04T03:06:29;12.00;99.90
52867;DHT22;38739;53.324;6.862;2022-10-04T03:09:02;12.00;99.90
52867;DHT22;38739;53.324;6.862;2022-10-04T03:11:34;12.00;99.90
52867;DHT22;38739;53.324;6.862;2022-10-04T03:14:02;12.00;99.90
52867;DHT22;38739;53.324;6.862;2022-10-04T03:16:38;12.00;99.90
52867;DHT22;38739;53.324;6.862;2022-10-04T03:19:05;12.00;99.90
52867;DHT22;38739;53.324;6.862;2022-10-04T03:21:33;11.90;99.90
52867;DHT22;38739;53.324;6.862;2022-10-04T03:24:01;11.90;99.90
52867;DHT22;38739;53.324;6.862;2022-10-04T03:26:49;11.90;99.90
52867;DHT22;38739;53.324;6.862;2022-10-04T03:29:17;11.90;99.90
52867;DHT22;38739;53.324;6.862;2022-10-04T03:31:46;11.90;99.90
52867;DHT22;38739;53.324;6.862;2022-10-04T03:34:18;11.90;99.90
52867;DHT22;38739;53.324;6.862;2022-10-04T03:36:46;11.90;99.90
52867;DHT22;38739;53.324;6.862;2022-10-04T03:41:51;11.90;99.90
52867;DHT22;38739;53.324;6.862;2022-10-04T03:44:18;11.90;99.90
52867;DHT22;38739;53.324;6.862;2022-10-04T03:46:46;12.00;99.90
52867;DHT22;38739;53.324;6.862;2022-10-04T03:49:17;12.00;99.90
52867;DHT22;38739;53.324;6.862;2022-10-04T03:51:48;12.00;99.90
52867;DHT22;38739;53.324;6.862;2022-10-04T03:54:22;12.00;99.90
52867;DHT22;38739;53.324;6.862;2022-10-04T03:56:50;12.00;99.90
52867;DHT22;38739;53.324;6.862;2022-10-04T03:59:18;11.90;99.90
52867;DHT22;38739;53.324;6.862;2022-10-04T04:01:48;12.00;99.90
52867;DHT22;38739;53.324;6.862;2022-10-04T04:04:44;12.00;99.90
52867;DHT22;38739;53.324;6.862;2022-10-04T04:07:19;12.00;99.90
52867;DHT22;38739;53.324;6.862;2022-10-04T04:10:04;11.90;99.90
52867;DHT22;38739;53.324;6.862;2022-10-04T04:12:42;11.90;99.90
52867;DHT22;38739;53.324;6.862;2022-10-04T04:15:13;11.90;99.90
52867;DHT22;38739;53.324;6.862;2022-10-04T04:17:42;11.90;99.90
52867;DHT22;38739;53.324;6.862;2022-10-04T04:20:25;11.90;99.90
52867;DHT22;38739;53.324;6.862;2022-10-04T04:23:22;11.90;99.90
52867;DHT22;38739;53.324;6.862;2022-10-04T04:25:50;11.90;99.90
52867;DHT22;38739;53.324;6.862;2022-10-04T04:28:31;11.90;99.90
52867;DHT22;38739;53.324;6.862;2022-10-04T04:31:11;11.90;99.90
52867;DHT22;38739;53.324;6.862;2022-10-04T04:36:12;11.90;99.90
52867;DHT22;38739;53.324;6.862;2022-10-04T04:38:38;11.90;99.90
52867;DHT22;38739;53.324;6.862;2022-10-04T04:41:29;11.90;99.90
52867;DHT22;38739;53.324;6.862;2022-10-04T04:43:56;11.90;99.90
52867;DHT22;38739;53.324;6.862;2022-10-04T04:46:23;11.90;99.90
52867;DHT22;38739;53.324;6.862;2022-10-04T04:48:53;11.90;99.90
52867;DHT22;38739;53.324;6.862;2022-10-04T04:51:23;11.90;99.90
52867;DHT22;38739;53.324;6.862;2022-10-04T04:53:51;11.90;99.90
52867;DHT22;38739;53.324;6.862;2022-10-04T04:56:21;11.80;99.90
52867;DHT22;38739;53.324;6.862;2022-10-04T04:58:49;11.80;99.90
52867;DHT22;38739;53.324;6.862;2022-10-04T05:01:48;11.80;99.90
52867;DHT22;38739;53.324;6.862;2022-10-04T05:04:22;11.70;99.90
52867;DHT22;38739;53.324;6.862;2022-10-04T05:09:33;11.70;99.90
52867;DHT22;38739;53.324;6.862;2022-10-04T05:12:17;11.70;99.90
52867;DHT22;38739;53.324;6.862;2022-10-04T05:14:55;11.60;99.90
52867;DHT22;38739;53.324;6.862;2022-10-04T05:17:24;11.60;99.90
52867;DHT22;38739;53.324;6.862;2022-10-04T05:19:52;11.50;99.90
52867;DHT22;38739;53.324;6.862;2022-10-04T05:22:22;11.50;99.90
52867;DHT22;38739;53.324;6.862;2022-10-04T05:24:51;11.50;99.90
52867;DHT22;38739;53.324;6.862;2022-10-04T05:27:35;11.40;99.90
52867;DHT22;38739;53.324;6.862;2022-10-04T05:30:08;11.40;99.90
52867;DHT22;38739;53.324;6.862;2022-10-04T05:33:00;11.30;99.90
52867;DHT22;38739;53.324;6.862;2022-10-04T05:36:23;11.30;99.90
52867;DHT22;38739;53.324;6.862;2022-10-04T05:41:30;11.20;99.90
52867;DHT22;38739;53.324;6.862;2022-10-04T05:43:55;11.20;99.90
52867;DHT22;38739;53.324;6.862;2022-10-04T05:48:52;11.10;99.90
52867;DHT22;38739;53.324;6.862;2022-10-04T05:51:19;11.10;99.90
52867;DHT22;38739;53.324;6.862;2022-10-04T05:53:47;11.10;99.90
52867;DHT22;38739;53.324;6.862;2022-10-04T05:59:33;11.10;99.90
52867;DHT22;38739;53.324;6.862;2022-10-04T06:05:00;11.00;99.90
52867;DHT22;38739;53.324;6.862;2022-10-04T06:07:39;11.00;99.90
52867;DHT22;38739;53.324;6.862;2022-10-04T06:16:48;11.00;99.90
52867;DHT22;38739;53.324;6.862;2022-10-04T06:21:44;11.00;99.90
52867;DHT22;38739;53.324;6.862;2022-10-04T06:24:24;11.00;99.90
52867;DHT22;38739;53.324;6.862;2022-10-04T06:27:01;11.10;99.90
52867;DHT22;38739;53.324;6.862;2022-10-04T06:29:35;11.10;99.90
52867;DHT22;38739;53.324;6.862;2022-10-04T07:02:24;11.20;99.90
52867;DHT22;38739;53.324;6.862;2022-10-04T07:04:55;11.30;99.90
52867;DHT22;38739;53.324;6.862;2022-10-04T07:13:27;11.50;99.90
52867;DHT22;38739;53.324;6.862;2022-10-04T07:27:09;11.80;99.90
52867;DHT22;38739;53.324;6.862;2022-10-04T07:29:39;11.80;99.90
52867;DHT22;38739;53.324;6.862;2022-10-04T07:32:22;11.80;99.90
52867;DHT22;38739;53.324;6.862;2022-10-04T07:40:34;11.80;99.90
52867;DHT22;38739;53.324;6.862;2022-10-04T07:43:19;11.80;99.90
52867;DHT22;38739;53.324;6.862;2022-10-04T07:45:46;11.90;99.90
52867;DHT22;38739;53.324;6.862;2022-10-04T07:48:17;12.10;99.90
52867;DHT22;38739;53.324;6.862;2022-10-04T07:51:06;12.50;99.90
52867;DHT22;38739;53.324;6.862;2022-10-04T07:53:42;13.00;99.90
52867;DHT22;38739;53.324;6.862;2022-10-04T07:56:39;13.40;99.90
52867;DHT22;38739;53.324;6.862;2022-10-04T08:01:40;14.20;99.90
52867;DHT22;38739;53.324;6.862;2022-10-04T08:07:09;14.40;99.90
52867;DHT22;38739;53.324;6.862;2022-10-04T08:12:52;14.40;99.90
52867;DHT22;38739;53.324;6.862;2022-10-04T08:15:37;14.30;99.90
52867;DHT22;38739;53.324;6.862;2022-10-04T08:20:40;14.20;99.90
52867;DHT22;38739;53.324;6.862;2022-10-04T08:37:48;13.90;99.90
52867;DHT22;38739;53.324;6.862;2022-10-04T08:40:43;13.90;99.90
52867;DHT22;38739;53.324;6.862;2022-10-04T08:51:24;16.20;99.90
52867;DHT22;38739;53.324;6.862;2022-10-04T09:14:08;20.90;99.90
52867;DHT22;38739;53.324;6.862;2022-10-04T09:16:54;21.40;99.90
52867;DHT22;38739;53.324;6.862;2022-10-04T09:19:39;22.00;99.90
52867;DHT22;38739;53.324;6.862;2022-10-04T09:22:16;22.40;99.90
52867;DHT22;38739;53.324;6.862;2022-10-04T09:25:20;22.70;99.90
52867;DHT22;38739;53.324;6.862;2022-10-04T09:30:27;23.30;99.90
52867;DHT22;38739;53.324;6.862;2022-10-04T09:33:29;23.30;99.90
52867;DHT22;38739;53.324;6.862;2022-10-04T09:47:15;23.50;99.90
52867;DHT22;38739;53.324;6.862;2022-10-04T09:52:39;23.80;99.40
52867;DHT22;38739;53.324;6.862;2022-10-04T09:55:40;23.70;99.70
52867;DHT22;38739;53.324;6.862;2022-10-04T10:01:48;23.60;98.80
52867;DHT22;38739;53.324;6.862;2022-10-04T10:04:40;23.20;99.90
52867;DHT22;38739;53.324;6.862;2022-10-04T10:15:49;25.20;98.40
52867;DHT22;38739;53.324;6.862;2022-10-04T10:27:14;26.00;93.20
52867;DHT22;38739;53.324;6.862;2022-10-04T10:32:32;26.10;93.00
52867;DHT22;38739;53.324;6.862;2022-10-04T10:35:15;25.90;93.00
52867;DHT22;38739;53.324;6.862;2022-10-04T10:38:07;26.20;92.50
52867;DHT22;38739;53.324;6.862;2022-10-04T10:54:52;28.20;86.00
52867;DHT22;38739;53.324;6.862;2022-10-04T11:00:19;28.20;80.70
52867;DHT22;38739;53.324;6.862;2022-10-04T11:03:57;27.90;83.90
52867;DHT22;38739;53.324;6.862;2022-10-04T11:06:22;28.00;83.40
52867;DHT22;38739;53.324;6.862;2022-10-04T11:42:42;30.90;74.10
52867;DHT22;38739;53.324;6.862;2022-10-04T11:48:18;31.20;69.50
52867;DHT22;38739;53.324;6.862;2022-10-04T11:59:47;31.60;69.20
52867;DHT22;38739;53.324;6.862;2022-10-04T12:05:19;32.00;65.80
52867;DHT22;38739;53.324;6.862;2022-10-04T12:08:03;31.50;66.50
52867;DHT22;38739;53.324;6.862;2022-10-04T12:10:40;31.40;66.10
52867;DHT22;38739;53.324;6.862;2022-10-04T12:23:59;31.50;66.80
52867;DHT22;38739;53.324;6.862;2022-10-04T12:29:34;31.90;65.60
52867;DHT22;38739;53.324;6.862;2022-10-04T12:32:17;32.00;64.90
52867;DHT22;38739;53.324;6.862;2022-10-04T12:34:52;31.90;63.70
52867;DHT22;38739;53.324;6.862;2022-10-04T12:40:22;32.00;63.50
52867;DHT22;38739;53.324;6.862;2022-10-04T12:51:04;31.80;64.10
52867;DHT22;38739;53.324;6.862;2022-10-04T12:53:56;32.10;63.00
52867;DHT22;38739;53.324;6.862;2022-10-04T12:56:30;31.80;62.60
52867;DHT22;38739;53.324;6.862;2022-10-04T12:59:30;31.60;63.50
52867;DHT22;38739;53.324;6.862;2022-10-04T13:02:17;30.80;62.00
52867;DHT22;38739;53.324;6.862;2022-10-04T13:04:58;30.60;63.80
52867;DHT22;38739;53.324;6.862;2022-10-04T13:18:42;30.00;64.80
52867;DHT22;38739;53.324;6.862;2022-10-04T13:24:02;29.20;65.20
52867;DHT22;38739;53.324;6.862;2022-10-04T13:29:27;29.70;66.50
52867;DHT22;38739;53.324;6.862;2022-10-04T13:43:16;30.60;62.50
52867;DHT22;38739;53.324;6.862;2022-10-04T13:53:35;29.60;63.80
52867;DHT22;38739;53.324;6.862;2022-10-04T14:07:57;24.30;74.70
52867;DHT22;38739;53.324;6.862;2022-10-04T14:32:42;21.40;83.80
52867;DHT22;38739;53.324;6.862;2022-10-04T14:51:34;20.50;91.00
52867;DHT22;38739;53.324;6.862;2022-10-04T14:56:41;21.20;90.10
52867;DHT22;38739;53.324;6.862;2022-10-04T15:17:40;20.40;92.20
52867;DHT22;38739;53.324;6.862;2022-10-04T15:20:37;20.10;93.00
52867;DHT22;38739;53.324;6.862;2022-10-04T15:31:40;19.10;96.70
52867;DHT22;38739;53.324;6.862;2022-10-04T15:34:38;19.00;97.70
52867;DHT22;38739;53.324;6.862;2022-10-04T15:37:24;18.90;98.40
52867;DHT22;38739;53.324;6.862;2022-10-04T15:43:23;18.60;99.90
52867;DHT22;38739;53.324;6.862;2022-10-04T15:46:07;18.50;99.90
52867;DHT22;38739;53.324;6.862;2022-10-04T15:54:59;18.20;99.90
52867;DHT22;38739;53.324;6.862;2022-10-04T15:59:54;18.00;99.90
52867;DHT22;38739;53.324;6.862;2022-10-04T16:05:25;17.90;99.90
52867;DHT22;38739;53.324;6.862;2022-10-04T16:08:16;17.80;99.90
52867;DHT22;38739;53.324;6.862;2022-10-04T16:19:13;17.50;99.90
52867;DHT22;38739;53.324;6.862;2022-10-04T16:29:50;17.20;99.90
52867;DHT22;38739;53.324;6.862;2022-10-04T16:32:41;17.20;99.90
52867;DHT22;38739;53.324;6.862;2022-10-04T16:35:30;17.10;99.90
52867;DHT22;38739;53.324;6.862;2022-10-04T16:53:40;16.70;99.90
52867;DHT22;38739;53.324;6.862;2022-10-04T16:56:14;16.60;99.90
52867;DHT22;38739;53.324;6.862;2022-10-04T17:07:26;16.40;99.90
52867;DHT22;38739;53.324;6.862;2022-10-04T17:10:15;16.40;99.90
52867;DHT22;38739;53.324;6.862;2022-10-04T17:30:15;16.00;99.90
52867;DHT22;38739;53.324;6.862;2022-10-04T17:33:10;15.90;99.90
52867;DHT22;38739;53.324;6.862;2022-10-04T17:36:11;15.90;99.90
52867;DHT22;38739;53.324;6.862;2022-10-04T17:47:00;15.80;99.90
52867;DHT22;38739;53.324;6.862;2022-10-04T17:52:39;15.70;99.90
52867;DHT22;38739;53.324;6.862;2022-10-04T17:55:32;15.70;99.90
52867;DHT22;38739;53.324;6.862;2022-10-04T18:00:58;15.60;99.90
52867;DHT22;38739;53.324;6.862;2022-10-04T18:03:38;15.60;99.90
52867;DHT22;38739;53.324;6.862;2022-10-04T18:06:24;15.60;99.90
52867;DHT22;38739;53.324;6.862;2022-10-04T18:09:08;15.60;99.90
52867;DHT22;38739;53.324;6.862;2022-10-04T18:11:42;15.60;99.90
52867;DHT22;38739;53.324;6.862;2022-10-04T18:14:19;15.50;99.90
52867;DHT22;38739;53.324;6.862;2022-10-04T18:16:56;15.50;99.90
52867;DHT22;38739;53.324;6.862;2022-10-04T18:22:18;15.50;99.90
52867;DHT22;38739;53.324;6.862;2022-10-04T18:25:01;15.50;99.90
52867;DHT22;38739;53.324;6.862;2022-10-04T18:27:31;15.50;99.90
52867;DHT22;38739;53.324;6.862;2022-10-04T18:34:57;15.50;99.90
52867;DHT22;38739;53.324;6.862;2022-10-04T18:37:36;15.50;99.90
52867;DHT22;38739;53.324;6.862;2022-10-04T18:40:20;15.40;99.90
52867;DHT22;38739;53.324;6.862;2022-10-04T18:42:51;15.40;99.90
52867;DHT22;38739;53.324;6.862;2022-10-04T18:47:52;15.30;99.90
52867;DHT22;38739;53.324;6.862;2022-10-04T18:50:37;15.30;99.90
52867;DHT22;38739;53.324;6.862;2022-10-04T18:56:07;15.30;99.90
52867;DHT22;38739;53.324;6.862;2022-10-04T19:06:52;15.30;99.90
52867;DHT22;38739;53.324;6.862;2022-10-04T19:09:45;15.30;99.90
52867;DHT22;38739;53.324;6.862;2022-10-04T19:12:29;15.30;99.90
52867;DHT22;38739;53.324;6.862;2022-10-04T19:20:37;15.30;99.90
52867;DHT22;38739;53.324;6.862;2022-10-04T19:28:33;15.30;99.90
52867;DHT22;38739;53.324;6.862;2022-10-04T19:33:58;15.30;99.90
52867;DHT22;38739;53.324;6.862;2022-10-04T19:42:03;15.30;99.90
52867;DHT22;38739;53.324;6.862;2022-10-04T19:44:53;15.30;99.90
52867;DHT22;38739;53.324;6.862;2022-10-04T19:47:25;15.30;99.90
52867;DHT22;38739;53.324;6.862;2022-10-04T19:50:02;15.30;99.90
52867;DHT22;38739;53.324;6.862;2022-10-04T19:52:41;15.30;99.90
52867;DHT22;38739;53.324;6.862;2022-10-04T19:55:56;15.30;99.90
52867;DHT22;38739;53.324;6.862;2022-10-04T20:01:06;15.30;99.90
52867;DHT22;38739;53.324;6.862;2022-10-04T20:03:34;15.30;99.90
52867;DHT22;38739;53.324;6.862;2022-10-04T20:05:59;15.30;99.90
52867;DHT22;38739;53.324;6.862;2022-10-04T20:08:48;15.40;99.90
52867;DHT22;38739;53.324;6.862;2022-10-04T20:11:24;15.40;99.90
52867;DHT22;38739;53.324;6.862;2022-10-04T20:37:05;15.40;99.90
52867;DHT22;38739;53.324;6.862;2022-10-04T20:42:27;15.40;99.90
52867;DHT22;38739;53.324;6.862;2022-10-04T20:49:50;15.30;99.90
52867;DHT22;38739;53.324;6.862;2022-10-04T20:52:17;15.40;99.90
52867;DHT22;38739;53.324;6.862;2022-10-04T20:54:52;15.30;99.90
52867;DHT22;38739;53.324;6.862;2022-10-04T20:57:19;15.30;99.90
52867;DHT22;38739;53.324;6.862;2022-10-04T20:59:53;15.30;99.90
52867;DHT22;38739;53.324;6.862;2022-10-04T21:02:20;15.30;99.90
52867;DHT22;38739;53.324;6.862;2022-10-04T21:04:50;15.30;99.90
52867;DHT22;38739;53.324;6.862;2022-10-04T21:07:23;15.30;99.90
52867;DHT22;38739;53.324;6.862;2022-10-04T21:09:50;15.30;99.90
52867;DHT22;38739;53.324;6.862;2022-10-04T21:12:39;15.30;99.90
52867;DHT22;38739;53.324;6.862;2022-10-04T21:17:41;15.30;99.90
52867;DHT22;38739;53.324;6.862;2022-10-04T21:20:40;15.30;99.90
52867;DHT22;38739;53.324;6.862;2022-10-04T21:23:27;15.20;99.90
52867;DHT22;38739;53.324;6.862;2022-10-04T21:26:20;15.20;99.90
52867;DHT22;38739;53.324;6.862;2022-10-04T21:28:47;15.30;99.90
52867;DHT22;38739;53.324;6.862;2022-10-04T21:31:13;15.20;99.90
52867;DHT22;38739;53.324;6.862;2022-10-04T21:33:39;15.20;99.90
52867;DHT22;38739;53.324;6.862;2022-10-04T21:36:05;15.20;99.90
52867;DHT22;38739;53.324;6.862;2022-10-04T21:38:31;15.20;99.90
52867;DHT22;38739;53.324;6.862;2022-10-04T21:40:57;15.20;99.90
52867;DHT22;38739;53.324;6.862;2022-10-04T21:43:23;15.20;99.90
52867;DHT22;38739;53.324;6.862;2022-10-04T21:45:50;15.20;99.90
52867;DHT22;38739;53.324;6.862;2022-10-04T21:48:15;15.20;99.90
52867;DHT22;38739;53.324;6.862;2022-10-04T21:50:42;15.20;99.90
52867;DHT22;38739;53.324;6.862;2022-10-04T21:53:08;15.20;99.90
52867;DHT22;38739;53.324;6.862;2022-10-04T21:55:34;15.20;99.90
52867;DHT22;38739;53.324;6.862;2022-10-04T21:57:59;15.20;99.90
52867;DHT22;38739;53.324;6.862;2022-10-04T22:00:25;15.20;99.90
52867;DHT22;38739;53.324;6.862;2022-10-04T22:02:51;15.20;99.90
52867;DHT22;38739;53.324;6.862;2022-10-04T22:05:16;15.20;99.90
52867;DHT22;38739;53.324;6.862;2022-10-04T22:07:42;15.20;99.90
52867;DHT22;38739;53.324;6.862;2022-10-04T22:10:08;15.20;99.90
52867;DHT22;38739;53.324;6.862;2022-10-04T22:12:34;15.20;99.90
52867;DHT22;38739;53.324;6.862;2022-10-04T22:15:00;15.20;99.90
52867;DHT22;38739;53.324;6.862;2022-10-04T22:17:25;15.20;99.90
52867;DHT22;38739;53.324;6.862;2022-10-04T22:19:51;15.20;99.90
52867;DHT22;38739;53.324;6.862;2022-10-04T22:22:17;15.20;99.90
52867;DHT22;38739;53.324;6.862;2022-10-04T22:24:43;15.20;99.90
52867;DHT22;38739;53.324;6.862;2022-10-04T22:27:18;15.20;99.90
52867;DHT22;38739;53.324;6.862;2022-10-04T22:29:44;15.20;99.90
52867;DHT22;38739;53.324;6.862;2022-10-04T22:32:21;15.20;99.90
52867;DHT22;38739;53.324;6.862;2022-10-04T22:34:52;15.20;99.90
52867;DHT22;38739;53.324;6.862;2022-10-04T22:37:23;15.20;99.90
52867;DHT22;38739;53.324;6.862;2022-10-04T22:39:52;15.20;99.90
52867;DHT22;38739;53.324;6.862;2022-10-04T22:42:18;15.10;99.90
52867;DHT22;38739;53.324;6.862;2022-10-04T22:44:45;15.10;99.90
52867;DHT22;38739;53.324;6.862;2022-10-04T22:47:12;15.10;99.90
52867;DHT22;38739;53.324;6.862;2022-10-04T22:49:44;15.10;99.90
52867;DHT22;38739;53.324;6.862;2022-10-04T22:52:20;15.10;99.90
52867;DHT22;38739;53.324;6.862;2022-10-04T22:54:49;15.10;99.90
52867;DHT22;38739;53.324;6.862;2022-10-04T22:57:16;15.10;99.90
52867;DHT22;38739;53.324;6.862;2022-10-04T22:59:50;15.10;99.90
52867;DHT22;38739;53.324;6.862;2022-10-04T23:02:21;15.00;99.90
52867;DHT22;38739;53.324;6.862;2022-10-04T23:05:14;15.00;99.90
52867;DHT22;38739;53.324;6.862;2022-10-04T23:07:41;15.00;99.90
52867;DHT22;38739;53.324;6.862;2022-10-04T23:10:08;15.00;99.90
52867;DHT22;38739;53.324;6.862;2022-10-04T23:12:34;15.00;99.90
52867;DHT22;38739;53.324;6.862;2022-10-04T23:15:01;15.00;99.90
52867;DHT22;38739;53.324;6.862;2022-10-04T23:17:38;15.00;99.90
52867;DHT22;38739;53.324;6.862;2022-10-04T23:20:15;15.00;99.90
52867;DHT22;38739;53.324;6.862;2022-10-04T23:22:52;15.00;99.90
52867;DHT22;38739;53.324;6.862;2022-10-04T23:25:26;15.00;99.90
52867;DHT22;38739;53.324;6.862;2022-10-04T23:27:55;15.00;99.90
52867;DHT22;38739;53.324;6.862;2022-10-04T23:30:24;15.00;99.90
52867;DHT22;38739;53.324;6.862;2022-10-04T23:32:51;15.10;99.90
52867;DHT22;38739;53.324;6.862;2022-10-04T23:35:21;15.00;99.90
52867;DHT22;38739;53.324;6.862;2022-10-04T23:37:47;15.10;99.90
52867;DHT22;38739;53.324;6.862;2022-10-04T23:40:16;15.10;99.90
52867;DHT22;38739;53.324;6.862;2022-10-04T23:42:44;15.10;99.90
52867;DHT22;38739;53.324;6.862;2022-10-04T23:45:21;15.10;99.90
52867;DHT22;38739;53.324;6.862;2022-10-04T23:47:53;15.10;99.90
52867;DHT22;38739;53.324;6.862;2022-10-04T23:50:20;15.10;99.90
52867;DHT22;38739;53.324;6.862;2022-10-04T23:52:47;15.10;99.90
52867;DHT22;38739;53.324;6.862;2022-10-04T23:55:17;15.10;99.90
52867;DHT22;38739;53.324;6.862;2022-10-04T23:57:44;15.10;99.90
